sensor_id;sensor_type;location;lat;lon;timestamp;P1;durP1;ratioP1;P2;durP2;ratioP2
24389;SDS011;12510;56.468;-3.004;2022-12-24T00:00:22;5.88;;;1.90;;
24389;SDS011;12510;56.468;-3.004;2022-12-24T00:02:49;4.05;;;1.23;;
24389;SDS011;12510;56.468;-3.004;2022-12-24T00:05:15;3.65;;;1.65;;
24389;SDS011;12510;56.468;-3.004;2022-12-24T00:07:41;6.45;;;1.40;;
24389;SDS011;12510;56.468;-3.004;2022-12-24T00:10:08;7.05;;;1.75;;
24389;SDS011;12510;56.468;-3.004;2022-12-24T00:12:34;2.28;;;0.88;;
24389;SDS011;12510;56.468;-3.004;2022-12-24T00:15:01;5.18;;;1.52;;
24389;SDS011;12510;56.468;-3.004;2022-12-24T00:17:27;2.40;;;1.58;;
24389;SDS011;12510;56.468;-3.004;2022-12-24T00:19:53;5.20;;;1.45;;
24389;SDS011;12510;56.468;-3.004;2022-12-24T00:22:19;6.07;;;1.55;;
24389;SDS011;12510;56.468;-3.004;2022-12-24T00:24:45;6.03;;;2.25;;
24389;SDS011;12510;56.468;-3.004;2022-12-24T00:27:11;6.55;;;1.77;;
24389;SDS011;12510;56.468;-3.004;2022-12-24T00:29:37;8.27;;;1.50;;
24389;SDS011;12510;56.468;-3.004;2022-12-24T00:32:03;5.32;;;1.35;;
24389;SDS011;12510;56.468;-3.004;2022-12-24T00:34:32;6.13;;;1.40;;
24389;SDS011;12510;56.468;-3.004;2022-12-24T00:36:58;6.78;;;3.20;;
24389;SDS011;12510;56.468;-3.004;2022-12-24T00:39:25;4.28;;;1.38;;
24389;SDS011;12510;56.468;-3.004;2022-12-24T00:41:51;2.22;;;0.98;;
24389;SDS011;12510;56.468;-3.004;2022-12-24T00:44:17;4.95;;;1.50;;
24389;SDS011;12510;56.468;-3.004;2022-12-24T00:46:43;5.10;;;3.42;;
24389;SDS011;12510;56.468;-3.004;2022-12-24T00:49:09;4.90;;;1.58;;
24389;SDS011;12510;56.468;-3.004;2022-12-24T00:51:37;5.97;;;1.73;;
24389;SDS011;12510;56.468;-3.004;2022-12-24T00:54:04;6.60;;;1.92;;
24389;SDS011;12510;56.468;-3.004;2022-12-24T00:56:30;5.82;;;1.60;;
24389;SDS011;12510;56.468;-3.004;2022-12-24T00:58:56;7.95;;;1.95;;
24389;SDS011;12510;56.468;-3.004;2022-12-24T01:01:23;7.68;;;1.75;;
24389;SDS011;12510;56.468;-3.004;2022-12-24T01:03:49;9.93;;;2.00;;
24389;SDS011;12510;56.468;-3.004;2022-12-24T01:06:17;5.40;;;1.85;;
24389;SDS011;12510;56.468;-3.004;2022-12-24T01:08:44;11.02;;;3.63;;
24389;SDS011;12510;56.468;-3.004;2022-12-24T01:11:10;8.57;;;1.80;;
24389;SDS011;12510;56.468;-3.004;2022-12-24T01:13:37;5.18;;;1.75;;
24389;SDS011;12510;56.468;-3.004;2022-12-24T01:16:10;5.50;;;1.98;;
24389;SDS011;12510;56.468;-3.004;2022-12-24T01:18:37;4.30;;;1.50;;
24389;SDS011;12510;56.468;-3.004;2022-12-24T01:21:03;5.25;;;1.75;;
24389;SDS011;12510;56.468;-3.004;2022-12-24T01:23:29;5.38;;;3.63;;
24389;SDS011;12510;56.468;-3.004;2022-12-24T01:25:59;3.45;;;1.98;;
24389;SDS011;12510;56.468;-3.004;2022-12-24T01:28:25;7.93;;;2.35;;
24389;SDS011;12510;56.468;-3.004;2022-12-24T01:30:51;4.82;;;2.00;;
24389;SDS011;12510;56.468;-3.004;2022-12-24T01:33:17;8.90;;;2.33;;
24389;SDS011;12510;56.468;-3.004;2022-12-24T01:35:44;4.60;;;1.33;;
24389;SDS011;12510;56.468;-3.004;2022-12-24T01:38:13;5.32;;;2.08;;
24389;SDS011;12510;56.468;-3.004;2022-12-24T01:40:40;1.88;;;1.10;;
24389;SDS011;12510;56.468;-3.004;2022-12-24T01:43:25;12.60;;;2.92;;
24389;SDS011;12510;56.468;-3.004;2022-12-24T01:45:54;4.57;;;1.55;;
24389;SDS011;12510;56.468;-3.004;2022-12-24T01:48:41;5.90;;;1.60;;
24389;SDS011;12510;56.468;-3.004;2022-12-24T01:53:32;5.68;;;1.65;;
24389;SDS011;12510;56.468;-3.004;2022-12-24T01:55:59;6.25;;;3.20;;
24389;SDS011;12510;56.468;-3.004;2022-12-24T01:58:25;21.25;;;4.97;;
24389;SDS011;12510;56.468;-3.004;2022-12-24T02:00:51;3.17;;;1.40;;
24389;SDS011;12510;56.468;-3.004;2022-12-24T02:03:18;6.18;;;1.77;;
24389;SDS011;12510;56.468;-3.004;2022-12-24T02:05:48;5.10;;;2.97;;
24389;SDS011;12510;56.468;-3.004;2022-12-24T02:08:15;2.58;;;1.67;;
24389;SDS011;12510;56.468;-3.004;2022-12-24T02:10:41;6.45;;;1.42;;
24389;SDS011;12510;56.468;-3.004;2022-12-24T02:13:08;7.63;;;2.40;;
24389;SDS011;12510;56.468;-3.004;2022-12-24T02:16:21;7.03;;;1.73;;
24389;SDS011;12510;56.468;-3.004;2022-12-24T02:23:56;5.68;;;1.70;;
24389;SDS011;12510;56.468;-3.004;2022-12-24T02:31:42;4.63;;;1.67;;
24389;SDS011;12510;56.468;-3.004;2022-12-24T02:34:13;6.55;;;1.42;;
24389;SDS011;12510;56.468;-3.004;2022-12-24T02:36:45;5.78;;;1.20;;
24389;SDS011;12510;56.468;-3.004;2022-12-24T02:39:17;7.20;;;1.95;;
24389;SDS011;12510;56.468;-3.004;2022-12-24T02:41:45;6.43;;;1.60;;
24389;SDS011;12510;56.468;-3.004;2022-12-24T02:44:40;5.40;;;1.52;;
24389;SDS011;12510;56.468;-3.004;2022-12-24T02:47:07;4.68;;;1.35;;
24389;SDS011;12510;56.468;-3.004;2022-12-24T02:49:35;9.50;;;2.17;;
24389;SDS011;12510;56.468;-3.004;2022-12-24T02:52:01;6.07;;;1.63;;
24389;SDS011;12510;56.468;-3.004;2022-12-24T02:54:27;5.05;;;1.23;;
24389;SDS011;12510;56.468;-3.004;2022-12-24T03:04:53;4.45;;;1.63;;
24389;SDS011;12510;56.468;-3.004;2022-12-24T03:07:23;4.05;;;1.45;;
24389;SDS011;12510;56.468;-3.004;2022-12-24T03:10:13;7.95;;;1.50;;
24389;SDS011;12510;56.468;-3.004;2022-12-24T03:12:37;3.85;;;1.02;;
24389;SDS011;12510;56.468;-3.004;2022-12-24T03:15:09;7.97;;;1.50;;
24389;SDS011;12510;56.468;-3.004;2022-12-24T03:17:37;5.72;;;1.35;;
24389;SDS011;12510;56.468;-3.004;2022-12-24T03:20:05;7.78;;;2.20;;
24389;SDS011;12510;56.468;-3.004;2022-12-24T03:22:31;2.83;;;1.00;;
24389;SDS011;12510;56.468;-3.004;2022-12-24T03:24:59;5.03;;;1.35;;
24389;SDS011;12510;56.468;-3.004;2022-12-24T03:27:26;4.13;;;1.27;;
24389;SDS011;12510;56.468;-3.004;2022-12-24T03:29:54;6.05;;;1.30;;
24389;SDS011;12510;56.468;-3.004;2022-12-24T03:32:24;3.08;;;0.95;;
24389;SDS011;12510;56.468;-3.004;2022-12-24T03:37:16;5.43;;;1.23;;
24389;SDS011;12510;56.468;-3.004;2022-12-24T03:39:42;5.88;;;1.42;;
24389;SDS011;12510;56.468;-3.004;2022-12-24T03:42:08;3.33;;;1.08;;
24389;SDS011;12510;56.468;-3.004;2022-12-24T03:44:34;5.00;;;1.65;;
24389;SDS011;12510;56.468;-3.004;2022-12-24T03:47:00;3.05;;;1.10;;
24389;SDS011;12510;56.468;-3.004;2022-12-24T03:49:26;5.18;;;1.30;;
24389;SDS011;12510;56.468;-3.004;2022-12-24T03:51:52;2.85;;;0.93;;
24389;SDS011;12510;56.468;-3.004;2022-12-24T03:54:18;1.55;;;0.85;;
24389;SDS011;12510;56.468;-3.004;2022-12-24T03:56:44;5.60;;;1.17;;
24389;SDS011;12510;56.468;-3.004;2022-12-24T03:59:10;3.08;;;1.25;;
24389;SDS011;12510;56.468;-3.004;2022-12-24T04:01:36;4.05;;;1.05;;
24389;SDS011;12510;56.468;-3.004;2022-12-24T04:04:02;4.68;;;1.05;;
24389;SDS011;12510;56.468;-3.004;2022-12-24T04:06:28;1.88;;;1.10;;
24389;SDS011;12510;56.468;-3.004;2022-12-24T04:08:54;3.58;;;1.55;;
24389;SDS011;12510;56.468;-3.004;2022-12-24T04:11:20;3.80;;;1.80;;
24389;SDS011;12510;56.468;-3.004;2022-12-24T04:13:46;3.15;;;1.55;;
24389;SDS011;12510;56.468;-3.004;2022-12-24T04:16:13;0.98;;;0.80;;
24389;SDS011;12510;56.468;-3.004;2022-12-24T04:18:40;4.70;;;1.13;;
24389;SDS011;12510;56.468;-3.004;2022-12-24T04:21:07;5.65;;;2.08;;
24389;SDS011;12510;56.468;-3.004;2022-12-24T04:23:34;3.35;;;0.80;;
24389;SDS011;12510;56.468;-3.004;2022-12-24T04:26:01;3.88;;;1.33;;
24389;SDS011;12510;56.468;-3.004;2022-12-24T04:28:28;6.03;;;0.80;;
24389;SDS011;12510;56.468;-3.004;2022-12-24T04:31:07;2.72;;;0.88;;
24389;SDS011;12510;56.468;-3.004;2022-12-24T04:33:34;1.92;;;1.73;;
24389;SDS011;12510;56.468;-3.004;2022-12-24T04:36:01;3.47;;;0.90;;
24389;SDS011;12510;56.468;-3.004;2022-12-24T04:38:28;6.05;;;1.52;;
24389;SDS011;12510;56.468;-3.004;2022-12-24T04:40:58;5.30;;;1.17;;
24389;SDS011;12510;56.468;-3.004;2022-12-24T04:43:24;3.40;;;1.80;;
24389;SDS011;12510;56.468;-3.004;2022-12-24T04:45:50;1.15;;;0.77;;
24389;SDS011;12510;56.468;-3.004;2022-12-24T04:48:16;6.70;;;1.00;;
24389;SDS011;12510;56.468;-3.004;2022-12-24T04:50:42;0.80;;;0.68;;
24389;SDS011;12510;56.468;-3.004;2022-12-24T04:53:08;5.82;;;1.00;;
24389;SDS011;12510;56.468;-3.004;2022-12-24T04:55:34;2.47;;;0.75;;
24389;SDS011;12510;56.468;-3.004;2022-12-24T04:58:00;1.88;;;0.85;;
24389;SDS011;12510;56.468;-3.004;2022-12-24T05:00:26;6.38;;;1.58;;
24389;SDS011;12510;56.468;-3.004;2022-12-24T05:02:52;2.60;;;0.73;;
24389;SDS011;12510;56.468;-3.004;2022-12-24T05:05:18;2.88;;;0.95;;
24389;SDS011;12510;56.468;-3.004;2022-12-24T05:08:02;2.60;;;0.90;;
24389;SDS011;12510;56.468;-3.004;2022-12-24T05:10:29;2.97;;;0.82;;
24389;SDS011;12510;56.468;-3.004;2022-12-24T05:12:55;1.20;;;0.70;;
24389;SDS011;12510;56.468;-3.004;2022-12-24T05:15:21;2.97;;;1.08;;
24389;SDS011;12510;56.468;-3.004;2022-12-24T05:17:47;0.85;;;0.80;;
24389;SDS011;12510;56.468;-3.004;2022-12-24T05:20:13;2.38;;;0.70;;
24389;SDS011;12510;56.468;-3.004;2022-12-24T05:22:39;2.25;;;0.80;;
24389;SDS011;12510;56.468;-3.004;2022-12-24T05:25:24;3.97;;;0.90;;
24389;SDS011;12510;56.468;-3.004;2022-12-24T05:28:09;2.28;;;0.90;;
24389;SDS011;12510;56.468;-3.004;2022-12-24T05:30:35;1.67;;;1.10;;
24389;SDS011;12510;56.468;-3.004;2022-12-24T05:33:01;1.48;;;1.00;;
24389;SDS011;12510;56.468;-3.004;2022-12-24T05:35:27;2.25;;;1.00;;
24389;SDS011;12510;56.468;-3.004;2022-12-24T05:37:56;3.03;;;1.30;;
24389;SDS011;12510;56.468;-3.004;2022-12-24T05:40:22;1.00;;;0.80;;
24389;SDS011;12510;56.468;-3.004;2022-12-24T05:42:48;1.70;;;1.27;;
24389;SDS011;12510;56.468;-3.004;2022-12-24T05:45:14;1.27;;;0.90;;
24389;SDS011;12510;56.468;-3.004;2022-12-24T05:47:41;4.30;;;1.33;;
24389;SDS011;12510;56.468;-3.004;2022-12-24T05:50:07;1.98;;;1.02;;
24389;SDS011;12510;56.468;-3.004;2022-12-24T05:52:33;0.95;;;0.95;;
24389;SDS011;12510;56.468;-3.004;2022-12-24T05:54:59;1.33;;;1.00;;
24389;SDS011;12510;56.468;-3.004;2022-12-24T05:57:25;4.78;;;1.15;;
24389;SDS011;12510;56.468;-3.004;2022-12-24T05:59:51;1.73;;;1.15;;
24389;SDS011;12510;56.468;-3.004;2022-12-24T06:02:17;1.23;;;0.90;;
24389;SDS011;12510;56.468;-3.004;2022-12-24T06:04:43;1.33;;;0.98;;
24389;SDS011;12510;56.468;-3.004;2022-12-24T06:07:09;4.25;;;1.20;;
24389;SDS011;12510;56.468;-3.004;2022-12-24T06:09:35;2.15;;;1.20;;
24389;SDS011;12510;56.468;-3.004;2022-12-24T06:12:01;2.72;;;0.93;;
24389;SDS011;12510;56.468;-3.004;2022-12-24T06:14:27;1.60;;;0.98;;
24389;SDS011;12510;56.468;-3.004;2022-12-24T06:16:53;3.53;;;2.05;;
24389;SDS011;12510;56.468;-3.004;2022-12-24T06:19:19;1.20;;;0.90;;
24389;SDS011;12510;56.468;-3.004;2022-12-24T06:21:45;4.45;;;1.30;;
24389;SDS011;12510;56.468;-3.004;2022-12-24T06:24:12;2.53;;;1.20;;
24389;SDS011;12510;56.468;-3.004;2022-12-24T06:26:38;1.25;;;1.15;;
24389;SDS011;12510;56.468;-3.004;2022-12-24T06:29:04;1.88;;;1.10;;
24389;SDS011;12510;56.468;-3.004;2022-12-24T06:31:30;2.28;;;1.17;;
24389;SDS011;12510;56.468;-3.004;2022-12-24T06:33:56;2.40;;;1.10;;
24389;SDS011;12510;56.468;-3.004;2022-12-24T06:36:23;1.13;;;0.73;;
24389;SDS011;12510;56.468;-3.004;2022-12-24T06:38:50;3.75;;;1.63;;
24389;SDS011;12510;56.468;-3.004;2022-12-24T06:41:17;2.33;;;1.20;;
24389;SDS011;12510;56.468;-3.004;2022-12-24T06:43:44;3.83;;;1.40;;
24389;SDS011;12510;56.468;-3.004;2022-12-24T06:46:10;1.55;;;1.00;;
24389;SDS011;12510;56.468;-3.004;2022-12-24T06:48:36;3.17;;;1.50;;
24389;SDS011;12510;56.468;-3.004;2022-12-24T06:51:02;1.50;;;1.40;;
24389;SDS011;12510;56.468;-3.004;2022-12-24T06:53:29;5.90;;;1.67;;
24389;SDS011;12510;56.468;-3.004;2022-12-24T06:56:02;2.88;;;1.60;;
24389;SDS011;12510;56.468;-3.004;2022-12-24T06:58:28;6.25;;;1.55;;
24389;SDS011;12510;56.468;-3.004;2022-12-24T07:00:55;1.48;;;1.38;;
24389;SDS011;12510;56.468;-3.004;2022-12-24T07:03:21;3.30;;;1.52;;
24389;SDS011;12510;56.468;-3.004;2022-12-24T07:05:47;4.22;;;1.70;;
24389;SDS011;12510;56.468;-3.004;2022-12-24T07:08:13;3.30;;;2.08;;
24389;SDS011;12510;56.468;-3.004;2022-12-24T07:10:39;2.35;;;1.85;;
24389;SDS011;12510;56.468;-3.004;2022-12-24T07:13:05;2.70;;;1.73;;
24389;SDS011;12510;56.468;-3.004;2022-12-24T07:15:31;3.88;;;1.73;;
24389;SDS011;12510;56.468;-3.004;2022-12-24T07:17:57;3.92;;;1.67;;
24389;SDS011;12510;56.468;-3.004;2022-12-24T07:20:23;4.28;;;1.83;;
24389;SDS011;12510;56.468;-3.004;2022-12-24T07:22:49;3.88;;;2.00;;
24389;SDS011;12510;56.468;-3.004;2022-12-24T07:25:15;5.47;;;1.58;;
24389;SDS011;12510;56.468;-3.004;2022-12-24T07:27:41;2.30;;;1.67;;
24389;SDS011;12510;56.468;-3.004;2022-12-24T07:30:07;2.75;;;1.90;;
24389;SDS011;12510;56.468;-3.004;2022-12-24T07:32:33;2.67;;;2.00;;
24389;SDS011;12510;56.468;-3.004;2022-12-24T07:35:00;3.28;;;2.10;;
24389;SDS011;12510;56.468;-3.004;2022-12-24T07:37:26;2.28;;;1.92;;
24389;SDS011;12510;56.468;-3.004;2022-12-24T07:39:52;5.25;;;2.42;;
24389;SDS011;12510;56.468;-3.004;2022-12-24T07:42:18;4.18;;;2.22;;
24389;SDS011;12510;56.468;-3.004;2022-12-24T07:44:44;2.58;;;1.83;;
24389;SDS011;12510;56.468;-3.004;2022-12-24T07:47:10;5.32;;;2.17;;
24389;SDS011;12510;56.468;-3.004;2022-12-24T07:49:36;3.72;;;2.40;;
24389;SDS011;12510;56.468;-3.004;2022-12-24T07:52:02;2.53;;;2.15;;
24389;SDS011;12510;56.468;-3.004;2022-12-24T07:54:29;2.50;;;2.30;;
24389;SDS011;12510;56.468;-3.004;2022-12-24T07:56:55;3.88;;;1.92;;
24389;SDS011;12510;56.468;-3.004;2022-12-24T07:59:21;3.70;;;1.90;;
24389;SDS011;12510;56.468;-3.004;2022-12-24T08:01:47;3.08;;;2.33;;
24389;SDS011;12510;56.468;-3.004;2022-12-24T08:04:13;6.20;;;2.20;;
24389;SDS011;12510;56.468;-3.004;2022-12-24T08:06:39;2.55;;;2.10;;
24389;SDS011;12510;56.468;-3.004;2022-12-24T08:09:05;5.05;;;2.85;;
24389;SDS011;12510;56.468;-3.004;2022-12-24T08:11:31;6.18;;;2.53;;
24389;SDS011;12510;56.468;-3.004;2022-12-24T08:13:57;2.78;;;2.33;;
24389;SDS011;12510;56.468;-3.004;2022-12-24T08:16:23;2.92;;;2.30;;
24389;SDS011;12510;56.468;-3.004;2022-12-24T08:18:49;3.58;;;2.42;;
24389;SDS011;12510;56.468;-3.004;2022-12-24T08:21:15;5.97;;;2.72;;
24389;SDS011;12510;56.468;-3.004;2022-12-24T08:23:41;5.43;;;2.60;;
24389;SDS011;12510;56.468;-3.004;2022-12-24T08:26:08;4.10;;;2.28;;
24389;SDS011;12510;56.468;-3.004;2022-12-24T08:28:34;7.65;;;2.90;;
24389;SDS011;12510;56.468;-3.004;2022-12-24T08:31:00;2.60;;;2.20;;
24389;SDS011;12510;56.468;-3.004;2022-12-24T08:33:27;2.17;;;1.75;;
24389;SDS011;12510;56.468;-3.004;2022-12-24T08:35:53;0.20;;;0.20;;
24389;SDS011;12510;56.468;-3.004;2022-12-24T08:38:20;0.45;;;0.45;;
24389;SDS011;12510;56.468;-3.004;2022-12-24T08:40:46;0.20;;;0.20;;
24389;SDS011;12510;56.468;-3.004;2022-12-24T08:43:15;0.30;;;0.30;;
24389;SDS011;12510;56.468;-3.004;2022-12-24T08:45:41;0.20;;;0.20;;
24389;SDS011;12510;56.468;-3.004;2022-12-24T08:48:08;0.20;;;0.20;;
24389;SDS011;12510;56.468;-3.004;2022-12-24T08:50:34;0.20;;;0.20;;
24389;SDS011;12510;56.468;-3.004;2022-12-24T08:53:00;0.20;;;0.20;;
24389;SDS011;12510;56.468;-3.004;2022-12-24T08:55:26;0.55;;;0.55;;
24389;SDS011;12510;56.468;-3.004;2022-12-24T08:57:52;0.40;;;0.40;;
24389;SDS011;12510;56.468;-3.004;2022-12-24T09:00:18;0.20;;;0.20;;
24389;SDS011;12510;56.468;-3.004;2022-12-24T09:02:44;0.20;;;0.20;;
24389;SDS011;12510;56.468;-3.004;2022-12-24T09:05:10;0.20;;;0.20;;
24389;SDS011;12510;56.468;-3.004;2022-12-24T09:07:36;0.40;;;0.40;;
24389;SDS011;12510;56.468;-3.004;2022-12-24T09:10:02;0.20;;;0.20;;
24389;SDS011;12510;56.468;-3.004;2022-12-24T09:12:29;0.20;;;0.20;;
24389;SDS011;12510;56.468;-3.004;2022-12-24T09:14:55;0.25;;;0.25;;
24389;SDS011;12510;56.468;-3.004;2022-12-24T09:17:21;0.20;;;0.20;;
24389;SDS011;12510;56.468;-3.004;2022-12-24T09:19:47;0.20;;;0.20;;
24389;SDS011;12510;56.468;-3.004;2022-12-24T09:22:13;0.20;;;0.20;;
24389;SDS011;12510;56.468;-3.004;2022-12-24T09:24:39;0.30;;;0.30;;
24389;SDS011;12510;56.468;-3.004;2022-12-24T09:27:05;0.20;;;0.20;;
24389;SDS011;12510;56.468;-3.004;2022-12-24T09:29:31;0.20;;;0.20;;
24389;SDS011;12510;56.468;-3.004;2022-12-24T09:31:57;0.20;;;0.20;;
24389;SDS011;12510;56.468;-3.004;2022-12-24T09:34:24;3.53;;;1.25;;
24389;SDS011;12510;56.468;-3.004;2022-12-24T09:36:50;0.20;;;0.20;;
24389;SDS011;12510;56.468;-3.004;2022-12-24T09:39:16;0.20;;;0.20;;
24389;SDS011;12510;56.468;-3.004;2022-12-24T09:44:43;0.20;;;0.20;;
24389;SDS011;12510;56.468;-3.004;2022-12-24T09:47:15;0.20;;;0.20;;
24389;SDS011;12510;56.468;-3.004;2022-12-24T09:49:46;0.20;;;0.20;;
24389;SDS011;12510;56.468;-3.004;2022-12-24T09:52:14;0.20;;;0.20;;
24389;SDS011;12510;56.468;-3.004;2022-12-24T09:54:43;0.10;;;0.10;;
24389;SDS011;12510;56.468;-3.004;2022-12-24T09:57:13;0.20;;;0.20;;
24389;SDS011;12510;56.468;-3.004;2022-12-24T09:59:41;0.85;;;0.75;;
24389;SDS011;12510;56.468;-3.004;2022-12-24T10:02:11;0.20;;;0.20;;
24389;SDS011;12510;56.468;-3.004;2022-12-24T10:04:38;0.20;;;0.20;;
24389;SDS011;12510;56.468;-3.004;2022-12-24T10:22:15;0.13;;;0.13;;
24389;SDS011;12510;56.468;-3.004;2022-12-24T10:27:13;0.20;;;0.20;;
24389;SDS011;12510;56.468;-3.004;2022-12-24T10:29:41;0.20;;;0.20;;
24389;SDS011;12510;56.468;-3.004;2022-12-24T10:34:36;0.20;;;0.20;;
24389;SDS011;12510;56.468;-3.004;2022-12-24T10:37:03;0.68;;;0.68;;
24389;SDS011;12510;56.468;-3.004;2022-12-24T10:39:29;0.30;;;0.30;;
24389;SDS011;12510;56.468;-3.004;2022-12-24T10:41:56;0.20;;;0.20;;
24389;SDS011;12510;56.468;-3.004;2022-12-24T10:44:27;0.20;;;0.20;;
24389;SDS011;12510;56.468;-3.004;2022-12-24T10:46:55;0.38;;;0.38;;
24389;SDS011;12510;56.468;-3.004;2022-12-24T10:49:43;0.10;;;0.10;;
24389;SDS011;12510;56.468;-3.004;2022-12-24T10:52:11;0.20;;;0.20;;
24389;SDS011;12510;56.468;-3.004;2022-12-24T10:54:39;0.30;;;0.30;;
24389;SDS011;12510;56.468;-3.004;2022-12-24T10:57:24;0.20;;;0.20;;
24389;SDS011;12510;56.468;-3.004;2022-12-24T10:59:52;0.30;;;0.30;;
24389;SDS011;12510;56.468;-3.004;2022-12-24T11:02:32;0.22;;;0.22;;
24389;SDS011;12510;56.468;-3.004;2022-12-24T11:04:59;0.20;;;0.20;;
24389;SDS011;12510;56.468;-3.004;2022-12-24T11:07:26;0.20;;;0.20;;
24389;SDS011;12510;56.468;-3.004;2022-12-24T11:09:54;0.30;;;0.30;;
24389;SDS011;12510;56.468;-3.004;2022-12-24T11:12:21;0.40;;;0.40;;
24389;SDS011;12510;56.468;-3.004;2022-12-24T11:14:48;0.50;;;0.50;;
24389;SDS011;12510;56.468;-3.004;2022-12-24T11:17:24;0.20;;;0.20;;
24389;SDS011;12510;56.468;-3.004;2022-12-24T11:19:50;0.20;;;0.20;;
24389;SDS011;12510;56.468;-3.004;2022-12-24T11:22:18;0.20;;;0.20;;
24389;SDS011;12510;56.468;-3.004;2022-12-24T11:24:44;0.20;;;0.20;;
24389;SDS011;12510;56.468;-3.004;2022-12-24T11:29:51;0.20;;;0.20;;
24389;SDS011;12510;56.468;-3.004;2022-12-24T11:32:19;0.20;;;0.20;;
24389;SDS011;12510;56.468;-3.004;2022-12-24T11:34:46;0.30;;;0.30;;
24389;SDS011;12510;56.468;-3.004;2022-12-24T11:39:48;0.20;;;0.20;;
24389;SDS011;12510;56.468;-3.004;2022-12-24T11:42:36;0.22;;;0.22;;
24389;SDS011;12510;56.468;-3.004;2022-12-24T11:45:46;0.20;;;0.20;;
24389;SDS011;12510;56.468;-3.004;2022-12-24T11:47:52;0.20;;;0.20;;
24389;SDS011;12510;56.468;-3.004;2022-12-24T11:53:28;0.17;;;0.17;;
24389;SDS011;12510;56.468;-3.004;2022-12-24T11:58:15;0.30;;;0.30;;
24389;SDS011;12510;56.468;-3.004;2022-12-24T12:00:43;0.20;;;0.20;;
24389;SDS011;12510;56.468;-3.004;2022-12-24T12:03:16;0.20;;;0.20;;
24389;SDS011;12510;56.468;-3.004;2022-12-24T12:05:45;0.20;;;0.20;;
24389;SDS011;12510;56.468;-3.004;2022-12-24T12:08:16;0.20;;;0.20;;
24389;SDS011;12510;56.468;-3.004;2022-12-24T12:10:43;0.10;;;0.10;;
24389;SDS011;12510;56.468;-3.004;2022-12-24T12:13:11;0.15;;;0.15;;
24389;SDS011;12510;56.468;-3.004;2022-12-24T12:15:42;0.10;;;0.10;;
24389;SDS011;12510;56.468;-3.004;2022-12-24T12:18:23;0.10;;;0.10;;
24389;SDS011;12510;56.468;-3.004;2022-12-24T12:21:01;0.28;;;0.28;;
24389;SDS011;12510;56.468;-3.004;2022-12-24T12:23:30;0.40;;;0.40;;
24389;SDS011;12510;56.468;-3.004;2022-12-24T12:29:03;0.17;;;0.17;;
24389;SDS011;12510;56.468;-3.004;2022-12-24T12:31:35;0.73;;;0.73;;
24389;SDS011;12510;56.468;-3.004;2022-12-24T12:36:43;0.20;;;0.20;;
24389;SDS011;12510;56.468;-3.004;2022-12-24T12:39:10;0.30;;;0.30;;
24389;SDS011;12510;56.468;-3.004;2022-12-24T12:55:01;9.02;;;2.45;;
24389;SDS011;12510;56.468;-3.004;2022-12-24T12:57:31;1.70;;;1.65;;
24389;SDS011;12510;56.468;-3.004;2022-12-24T13:00:02;0.17;;;0.17;;
24389;SDS011;12510;56.468;-3.004;2022-12-24T13:13:15;2.28;;;0.52;;
24389;SDS011;12510;56.468;-3.004;2022-12-24T13:15:56;0.10;;;0.10;;
24389;SDS011;12510;56.468;-3.004;2022-12-24T13:21:41;0.20;;;0.20;;
24389;SDS011;12510;56.468;-3.004;2022-12-24T13:24:06;0.47;;;0.47;;
24389;SDS011;12510;56.468;-3.004;2022-12-24T13:26:37;0.10;;;0.10;;
24389;SDS011;12510;56.468;-3.004;2022-12-24T13:31:48;0.20;;;0.20;;
24389;SDS011;12510;56.468;-3.004;2022-12-24T13:34:34;0.17;;;0.17;;
24389;SDS011;12510;56.468;-3.004;2022-12-24T13:37:03;0.20;;;0.20;;
24389;SDS011;12510;56.468;-3.004;2022-12-24T13:39:59;0.28;;;0.28;;
24389;SDS011;12510;56.468;-3.004;2022-12-24T13:42:40;0.20;;;0.20;;
24389;SDS011;12510;56.468;-3.004;2022-12-24T13:47:46;0.40;;;0.40;;
24389;SDS011;12510;56.468;-3.004;2022-12-24T13:50:16;0.43;;;0.43;;
24389;SDS011;12510;56.468;-3.004;2022-12-24T13:52:49;0.20;;;0.20;;
24389;SDS011;12510;56.468;-3.004;2022-12-24T13:55:16;0.20;;;0.20;;
24389;SDS011;12510;56.468;-3.004;2022-12-24T13:57:43;0.20;;;0.20;;
24389;SDS011;12510;56.468;-3.004;2022-12-24T14:00:24;0.20;;;0.20;;
24389;SDS011;12510;56.468;-3.004;2022-12-24T14:02:55;0.17;;;0.17;;
24389;SDS011;12510;56.468;-3.004;2022-12-24T14:05:31;0.20;;;0.20;;
24389;SDS011;12510;56.468;-3.004;2022-12-24T14:07:59;0.10;;;0.10;;
24389;SDS011;12510;56.468;-3.004;2022-12-24T14:10:28;0.30;;;0.30;;
24389;SDS011;12510;56.468;-3.004;2022-12-24T14:12:55;0.20;;;0.20;;
24389;SDS011;12510;56.468;-3.004;2022-12-24T14:18:06;0.20;;;0.20;;
24389;SDS011;12510;56.468;-3.004;2022-12-24T14:20:32;0.30;;;0.30;;
24389;SDS011;12510;56.468;-3.004;2022-12-24T14:22:58;0.52;;;0.52;;
24389;SDS011;12510;56.468;-3.004;2022-12-24T14:25:26;0.10;;;0.10;;
24389;SDS011;12510;56.468;-3.004;2022-12-24T14:27:56;0.22;;;0.22;;
24389;SDS011;12510;56.468;-3.004;2022-12-24T14:30:23;0.20;;;0.20;;
24389;SDS011;12510;56.468;-3.004;2022-12-24T14:32:50;0.22;;;0.22;;
24389;SDS011;12510;56.468;-3.004;2022-12-24T14:35:20;1.27;;;1.27;;
24389;SDS011;12510;56.468;-3.004;2022-12-24T14:40:15;0.40;;;0.40;;
24389;SDS011;12510;56.468;-3.004;2022-12-24T14:42:51;0.20;;;0.20;;
24389;SDS011;12510;56.468;-3.004;2022-12-24T14:50:35;0.10;;;0.10;;
24389;SDS011;12510;56.468;-3.004;2022-12-24T14:55:43;0.55;;;0.55;;
24389;SDS011;12510;56.468;-3.004;2022-12-24T15:00:42;0.30;;;0.30;;
24389;SDS011;12510;56.468;-3.004;2022-12-24T15:03:15;0.20;;;0.20;;
24389;SDS011;12510;56.468;-3.004;2022-12-24T15:05:42;1.85;;;1.05;;
24389;SDS011;12510;56.468;-3.004;2022-12-24T15:08:18;0.20;;;0.20;;
24389;SDS011;12510;56.468;-3.004;2022-12-24T15:10:49;0.17;;;0.17;;
24389;SDS011;12510;56.468;-3.004;2022-12-24T15:15:42;0.28;;;0.28;;
24389;SDS011;12510;56.468;-3.004;2022-12-24T15:18:13;0.10;;;0.10;;
24389;SDS011;12510;56.468;-3.004;2022-12-24T15:23:15;0.30;;;0.30;;
24389;SDS011;12510;56.468;-3.004;2022-12-24T15:25:42;0.28;;;0.28;;
24389;SDS011;12510;56.468;-3.004;2022-12-24T15:28:18;0.38;;;0.38;;
24389;SDS011;12510;56.468;-3.004;2022-12-24T15:30:44;0.20;;;0.20;;
24389;SDS011;12510;56.468;-3.004;2022-12-24T15:33:11;0.20;;;0.20;;
24389;SDS011;12510;56.468;-3.004;2022-12-24T15:35:52;0.20;;;0.20;;
24389;SDS011;12510;56.468;-3.004;2022-12-24T15:38:30;0.30;;;0.30;;
24389;SDS011;12510;56.468;-3.004;2022-12-24T15:40:57;0.20;;;0.20;;
24389;SDS011;12510;56.468;-3.004;2022-12-24T15:43:23;0.13;;;0.13;;
24389;SDS011;12510;56.468;-3.004;2022-12-24T15:45:49;0.50;;;0.50;;
24389;SDS011;12510;56.468;-3.004;2022-12-24T15:48:25;0.13;;;0.13;;
24389;SDS011;12510;56.468;-3.004;2022-12-24T15:51:01;0.43;;;0.43;;
24389;SDS011;12510;56.468;-3.004;2022-12-24T15:53:29;1.00;;;1.00;;
24389;SDS011;12510;56.468;-3.004;2022-12-24T15:56:07;1.10;;;1.10;;
24389;SDS011;12510;56.468;-3.004;2022-12-24T15:58:42;0.20;;;0.20;;
24389;SDS011;12510;56.468;-3.004;2022-12-24T16:03:38;0.20;;;0.20;;
24389;SDS011;12510;56.468;-3.004;2022-12-24T16:06:06;2.10;;;2.00;;
24389;SDS011;12510;56.468;-3.004;2022-12-24T16:08:39;1.20;;;1.17;;
24389;SDS011;12510;56.468;-3.004;2022-12-24T16:13:36;0.20;;;0.20;;
24389;SDS011;12510;56.468;-3.004;2022-12-24T16:16:06;0.63;;;0.63;;
24389;SDS011;12510;56.468;-3.004;2022-12-24T16:20:58;0.40;;;0.40;;
24389;SDS011;12510;56.468;-3.004;2022-12-24T16:23:26;0.32;;;0.32;;
24389;SDS011;12510;56.468;-3.004;2022-12-24T16:25:53;0.30;;;0.30;;
24389;SDS011;12510;56.468;-3.004;2022-12-24T16:28:19;0.50;;;0.50;;
24389;SDS011;12510;56.468;-3.004;2022-12-24T16:30:47;0.20;;;0.20;;
24389;SDS011;12510;56.468;-3.004;2022-12-24T16:33:14;0.82;;;0.82;;
24389;SDS011;12510;56.468;-3.004;2022-12-24T16:35:40;0.20;;;0.20;;
24389;SDS011;12510;56.468;-3.004;2022-12-24T16:38:06;0.20;;;0.20;;
24389;SDS011;12510;56.468;-3.004;2022-12-24T16:40:33;1.23;;;1.08;;
24389;SDS011;12510;56.468;-3.004;2022-12-24T16:42:59;0.20;;;0.20;;